sensor_id;sensor_type;location;lat;lon;timestamp;P1;durP1;ratioP1;P2;durP2;ratioP2
11141;SDS011;5625;50.122;19.864;2023-07-13T00:00:59;9.17;;;6.63;;
11141;SDS011;5625;50.122;19.864;2023-07-13T00:03:27;10.67;;;6.67;;
11141;SDS011;5625;50.122;19.864;2023-07-13T00:06:02;7.10;;;6.40;;
11141;SDS011;5625;50.122;19.864;2023-07-13T00:08:31;7.00;;;6.27;;
11141;SDS011;5625;50.122;19.864;2023-07-13T00:11:00;8.23;;;6.47;;
11141;SDS011;5625;50.122;19.864;2023-07-13T00:13:28;7.67;;;5.97;;
11141;SDS011;5625;50.122;19.864;2023-07-13T00:15:57;7.37;;;6.67;;
11141;SDS011;5625;50.122;19.864;2023-07-13T00:18:27;7.03;;;6.40;;
11141;SDS011;5625;50.122;19.864;2023-07-13T00:20:56;8.20;;;6.57;;
11141;SDS011;5625;50.122;19.864;2023-07-13T00:23:32;7.60;;;6.37;;
11141;SDS011;5625;50.122;19.864;2023-07-13T00:26:00;7.87;;;6.30;;
11141;SDS011;5625;50.122;19.864;2023-07-13T00:28:29;7.77;;;6.97;;
11141;SDS011;5625;50.122;19.864;2023-07-13T00:30:57;7.73;;;6.60;;
11141;SDS011;5625;50.122;19.864;2023-07-13T00:33:26;7.60;;;6.83;;
11141;SDS011;5625;50.122;19.864;2023-07-13T00:35:55;7.43;;;6.73;;
11141;SDS011;5625;50.122;19.864;2023-07-13T00:38:23;7.63;;;6.80;;
11141;SDS011;5625;50.122;19.864;2023-07-13T00:40:53;8.37;;;6.93;;
11141;SDS011;5625;50.122;19.864;2023-07-13T00:43:22;9.37;;;7.03;;
11141;SDS011;5625;50.122;19.864;2023-07-13T00:48:56;10.33;;;6.77;;
11141;SDS011;5625;50.122;19.864;2023-07-13T00:51:29;11.37;;;7.47;;
11141;SDS011;5625;50.122;19.864;2023-07-13T00:54:00;7.37;;;6.60;;
11141;SDS011;5625;50.122;19.864;2023-07-13T00:56:35;8.13;;;7.00;;
11141;SDS011;5625;50.122;19.864;2023-07-13T00:59:05;9.10;;;6.83;;
11141;SDS011;5625;50.122;19.864;2023-07-13T01:01:35;8.10;;;7.27;;
11141;SDS011;5625;50.122;19.864;2023-07-13T01:04:03;8.67;;;7.23;;
11141;SDS011;5625;50.122;19.864;2023-07-13T01:06:34;7.67;;;6.87;;
11141;SDS011;5625;50.122;19.864;2023-07-13T01:09:03;9.30;;;7.47;;
11141;SDS011;5625;50.122;19.864;2023-07-13T01:11:32;9.13;;;7.50;;
11141;SDS011;5625;50.122;19.864;2023-07-13T01:14:02;9.33;;;7.00;;
11141;SDS011;5625;50.122;19.864;2023-07-13T01:16:32;7.77;;;6.47;;
11141;SDS011;5625;50.122;19.864;2023-07-13T01:19:03;8.87;;;6.97;;
11141;SDS011;5625;50.122;19.864;2023-07-13T01:21:50;7.33;;;5.93;;
11141;SDS011;5625;50.122;19.864;2023-07-13T01:24:19;5.93;;;5.43;;
11141;SDS011;5625;50.122;19.864;2023-07-13T01:26:47;5.90;;;5.30;;
11141;SDS011;5625;50.122;19.864;2023-07-13T01:29:15;5.10;;;4.70;;
11141;SDS011;5625;50.122;19.864;2023-07-13T01:31:44;5.20;;;4.33;;
11141;SDS011;5625;50.122;19.864;2023-07-13T01:34:12;4.90;;;4.40;;
11141;SDS011;5625;50.122;19.864;2023-07-13T01:36:40;5.13;;;4.17;;
11141;SDS011;5625;50.122;19.864;2023-07-13T01:39:10;5.27;;;4.40;;
11141;SDS011;5625;50.122;19.864;2023-07-13T01:41:38;5.77;;;4.33;;
11141;SDS011;5625;50.122;19.864;2023-07-13T01:44:07;9.80;;;5.43;;
11141;SDS011;5625;50.122;19.864;2023-07-13T01:46:35;6.60;;;5.33;;
11141;SDS011;5625;50.122;19.864;2023-07-13T01:49:03;6.40;;;5.80;;
11141;SDS011;5625;50.122;19.864;2023-07-13T01:51:31;6.40;;;5.80;;
11141;SDS011;5625;50.122;19.864;2023-07-13T01:53:59;6.23;;;5.63;;
11141;SDS011;5625;50.122;19.864;2023-07-13T01:56:28;6.93;;;6.33;;
11141;SDS011;5625;50.122;19.864;2023-07-13T01:58:56;6.23;;;5.70;;
11141;SDS011;5625;50.122;19.864;2023-07-13T02:01:24;6.10;;;5.50;;
11141;SDS011;5625;50.122;19.864;2023-07-13T02:03:53;7.33;;;5.43;;
11141;SDS011;5625;50.122;19.864;2023-07-13T02:06:21;7.20;;;5.10;;
11141;SDS011;5625;50.122;19.864;2023-07-13T02:08:49;5.93;;;5.43;;
11141;SDS011;5625;50.122;19.864;2023-07-13T02:11:17;6.30;;;5.40;;
11141;SDS011;5625;50.122;19.864;2023-07-13T02:13:46;7.47;;;5.60;;
11141;SDS011;5625;50.122;19.864;2023-07-13T02:16:15;6.03;;;5.27;;
11141;SDS011;5625;50.122;19.864;2023-07-13T02:18:43;6.03;;;4.90;;
11141;SDS011;5625;50.122;19.864;2023-07-13T02:21:11;5.70;;;5.23;;
11141;SDS011;5625;50.122;19.864;2023-07-13T02:23:39;6.80;;;4.60;;
11141;SDS011;5625;50.122;19.864;2023-07-13T02:26:07;5.53;;;4.97;;
11141;SDS011;5625;50.122;19.864;2023-07-13T02:28:35;5.97;;;5.37;;
11141;SDS011;5625;50.122;19.864;2023-07-13T02:31:05;5.33;;;4.40;;
11141;SDS011;5625;50.122;19.864;2023-07-13T02:33:35;5.93;;;4.93;;
11141;SDS011;5625;50.122;19.864;2023-07-13T02:36:03;5.70;;;5.10;;
11141;SDS011;5625;50.122;19.864;2023-07-13T02:38:33;9.93;;;5.40;;
11141;SDS011;5625;50.122;19.864;2023-07-13T02:41:02;6.80;;;5.10;;
11141;SDS011;5625;50.122;19.864;2023-07-13T02:43:30;6.27;;;5.37;;
11141;SDS011;5625;50.122;19.864;2023-07-13T02:45:58;5.80;;;5.30;;
11141;SDS011;5625;50.122;19.864;2023-07-13T02:48:31;5.67;;;5.20;;
11141;SDS011;5625;50.122;19.864;2023-07-13T02:51:00;7.50;;;6.23;;
11141;SDS011;5625;50.122;19.864;2023-07-13T02:53:28;7.23;;;5.83;;
11141;SDS011;5625;50.122;19.864;2023-07-13T02:55:56;7.13;;;5.53;;
11141;SDS011;5625;50.122;19.864;2023-07-13T02:58:24;7.00;;;5.53;;
11141;SDS011;5625;50.122;19.864;2023-07-13T03:00:52;6.47;;;5.87;;
11141;SDS011;5625;50.122;19.864;2023-07-13T03:03:20;7.70;;;5.70;;
11141;SDS011;5625;50.122;19.864;2023-07-13T03:05:57;6.20;;;5.70;;
11141;SDS011;5625;50.122;19.864;2023-07-13T03:08:26;6.17;;;5.57;;
11141;SDS011;5625;50.122;19.864;2023-07-13T03:10:58;6.03;;;5.40;;
11141;SDS011;5625;50.122;19.864;2023-07-13T03:13:27;6.53;;;5.53;;
11141;SDS011;5625;50.122;19.864;2023-07-13T03:15:55;5.80;;;5.30;;
11141;SDS011;5625;50.122;19.864;2023-07-13T03:18:25;5.97;;;5.40;;
11141;SDS011;5625;50.122;19.864;2023-07-13T03:20:56;5.90;;;5.30;;
11141;SDS011;5625;50.122;19.864;2023-07-13T03:23:25;6.00;;;5.27;;
11141;SDS011;5625;50.122;19.864;2023-07-13T03:26:00;6.30;;;5.80;;
11141;SDS011;5625;50.122;19.864;2023-07-13T03:28:29;5.93;;;5.43;;
11141;SDS011;5625;50.122;19.864;2023-07-13T03:31:01;7.27;;;5.73;;
11141;SDS011;5625;50.122;19.864;2023-07-13T03:33:30;8.13;;;5.40;;
11141;SDS011;5625;50.122;19.864;2023-07-13T03:35:59;6.50;;;5.90;;
11141;SDS011;5625;50.122;19.864;2023-07-13T03:38:28;5.80;;;5.27;;
11141;SDS011;5625;50.122;19.864;2023-07-13T03:40:56;6.57;;;5.70;;
11141;SDS011;5625;50.122;19.864;2023-07-13T03:43:24;5.50;;;5.03;;
11141;SDS011;5625;50.122;19.864;2023-07-13T03:45:52;5.80;;;5.10;;
11141;SDS011;5625;50.122;19.864;2023-07-13T03:48:20;9.17;;;6.20;;
11141;SDS011;5625;50.122;19.864;2023-07-13T03:50:48;6.00;;;5.40;;
11141;SDS011;5625;50.122;19.864;2023-07-13T03:53:18;6.50;;;5.77;;
11141;SDS011;5625;50.122;19.864;2023-07-13T03:55:46;5.60;;;5.20;;
11141;SDS011;5625;50.122;19.864;2023-07-13T03:58:25;6.07;;;5.50;;
11141;SDS011;5625;50.122;19.864;2023-07-13T04:00:56;6.43;;;5.77;;
11141;SDS011;5625;50.122;19.864;2023-07-13T04:03:24;5.70;;;5.10;;
11141;SDS011;5625;50.122;19.864;2023-07-13T04:05:54;6.00;;;5.50;;
11141;SDS011;5625;50.122;19.864;2023-07-13T04:08:28;6.63;;;6.00;;
11141;SDS011;5625;50.122;19.864;2023-07-13T04:10:57;6.57;;;5.97;;
11141;SDS011;5625;50.122;19.864;2023-07-13T04:13:26;7.03;;;5.87;;
11141;SDS011;5625;50.122;19.864;2023-07-13T04:15:55;6.67;;;5.73;;
11141;SDS011;5625;50.122;19.864;2023-07-13T04:18:23;6.40;;;5.80;;
11141;SDS011;5625;50.122;19.864;2023-07-13T04:20:51;6.53;;;5.63;;
11141;SDS011;5625;50.122;19.864;2023-07-13T04:23:19;6.33;;;5.73;;
11141;SDS011;5625;50.122;19.864;2023-07-13T04:25:49;6.40;;;5.63;;
11141;SDS011;5625;50.122;19.864;2023-07-13T04:28:20;6.03;;;5.40;;
11141;SDS011;5625;50.122;19.864;2023-07-13T04:30:49;7.37;;;5.23;;
11141;SDS011;5625;50.122;19.864;2023-07-13T04:33:17;5.10;;;4.70;;
11141;SDS011;5625;50.122;19.864;2023-07-13T04:35:48;5.47;;;4.97;;
11141;SDS011;5625;50.122;19.864;2023-07-13T04:38:20;6.60;;;5.27;;
11141;SDS011;5625;50.122;19.864;2023-07-13T04:40:50;5.70;;;5.17;;
11141;SDS011;5625;50.122;19.864;2023-07-13T04:43:18;5.87;;;4.80;;
11141;SDS011;5625;50.122;19.864;2023-07-13T04:45:46;5.00;;;4.60;;
11141;SDS011;5625;50.122;19.864;2023-07-13T04:48:14;6.37;;;4.80;;
11141;SDS011;5625;50.122;19.864;2023-07-13T04:50:43;6.33;;;4.53;;
11141;SDS011;5625;50.122;19.864;2023-07-13T04:53:11;4.47;;;4.07;;
11141;SDS011;5625;50.122;19.864;2023-07-13T04:55:39;4.60;;;4.20;;
11141;SDS011;5625;50.122;19.864;2023-07-13T04:58:08;6.67;;;4.40;;
11141;SDS011;5625;50.122;19.864;2023-07-13T05:00:37;6.13;;;4.20;;
11141;SDS011;5625;50.122;19.864;2023-07-13T05:03:05;4.20;;;3.77;;
11141;SDS011;5625;50.122;19.864;2023-07-13T05:05:33;5.00;;;4.30;;
11141;SDS011;5625;50.122;19.864;2023-07-13T05:08:03;5.30;;;4.50;;
11141;SDS011;5625;50.122;19.864;2023-07-13T05:10:31;5.50;;;4.33;;
11141;SDS011;5625;50.122;19.864;2023-07-13T05:12:59;5.07;;;3.97;;
11141;SDS011;5625;50.122;19.864;2023-07-13T05:15:28;6.27;;;3.90;;
11141;SDS011;5625;50.122;19.864;2023-07-13T05:17:56;4.10;;;3.70;;
11141;SDS011;5625;50.122;19.864;2023-07-13T05:20:25;5.43;;;4.13;;
11141;SDS011;5625;50.122;19.864;2023-07-13T05:22:53;4.90;;;3.70;;
11141;SDS011;5625;50.122;19.864;2023-07-13T05:25:21;3.97;;;3.67;;
11141;SDS011;5625;50.122;19.864;2023-07-13T05:27:49;3.97;;;3.20;;
11141;SDS011;5625;50.122;19.864;2023-07-13T05:30:17;4.20;;;3.50;;
11141;SDS011;5625;50.122;19.864;2023-07-13T05:32:47;3.40;;;3.20;;
11141;SDS011;5625;50.122;19.864;2023-07-13T05:35:15;3.63;;;3.20;;
11141;SDS011;5625;50.122;19.864;2023-07-13T05:37:43;3.60;;;3.30;;
11141;SDS011;5625;50.122;19.864;2023-07-13T05:40:11;5.10;;;3.27;;
11141;SDS011;5625;50.122;19.864;2023-07-13T05:42:39;4.77;;;3.80;;
11141;SDS011;5625;50.122;19.864;2023-07-13T05:45:08;5.27;;;3.97;;
11141;SDS011;5625;50.122;19.864;2023-07-13T05:47:36;4.03;;;3.67;;
11141;SDS011;5625;50.122;19.864;2023-07-13T05:50:06;3.83;;;3.53;;
11141;SDS011;5625;50.122;19.864;2023-07-13T05:52:35;4.70;;;3.70;;
11141;SDS011;5625;50.122;19.864;2023-07-13T05:55:04;8.27;;;4.03;;
11141;SDS011;5625;50.122;19.864;2023-07-13T05:57:32;4.20;;;3.80;;
11141;SDS011;5625;50.122;19.864;2023-07-13T06:00:00;5.23;;;3.33;;
11141;SDS011;5625;50.122;19.864;2023-07-13T06:02:28;5.83;;;3.90;;
11141;SDS011;5625;50.122;19.864;2023-07-13T06:04:56;4.20;;;3.73;;
11141;SDS011;5625;50.122;19.864;2023-07-13T06:07:26;3.87;;;3.40;;
11141;SDS011;5625;50.122;19.864;2023-07-13T06:09:55;5.47;;;4.00;;
11141;SDS011;5625;50.122;19.864;2023-07-13T06:12:25;3.97;;;3.55;;
11141;SDS011;5625;50.122;19.864;2023-07-13T06:14:53;4.05;;;3.65;;
11141;SDS011;5625;50.122;19.864;2023-07-13T06:17:24;4.38;;;3.97;;
11141;SDS011;5625;50.122;19.864;2023-07-13T06:19:52;3.53;;;3.13;;
11141;SDS011;5625;50.122;19.864;2023-07-13T06:22:20;5.13;;;2.95;;
11141;SDS011;5625;50.122;19.864;2023-07-13T06:24:50;3.60;;;2.88;;
11141;SDS011;5625;50.122;19.864;2023-07-13T06:27:19;4.85;;;3.20;;
11141;SDS011;5625;50.122;19.864;2023-07-13T06:29:47;3.92;;;3.13;;
11141;SDS011;5625;50.122;19.864;2023-07-13T06:32:15;4.72;;;3.67;;
11141;SDS011;5625;50.122;19.864;2023-07-13T06:34:45;4.53;;;3.55;;
11141;SDS011;5625;50.122;19.864;2023-07-13T06:37:14;4.47;;;3.22;;
11141;SDS011;5625;50.122;19.864;2023-07-13T06:39:52;4.57;;;3.45;;
11141;SDS011;5625;50.122;19.864;2023-07-13T06:42:20;5.47;;;3.65;;
11141;SDS011;5625;50.122;19.864;2023-07-13T06:44:48;3.83;;;3.45;;
11141;SDS011;5625;50.122;19.864;2023-07-13T06:47:16;4.22;;;3.47;;
11141;SDS011;5625;50.122;19.864;2023-07-13T06:49:44;4.78;;;3.08;;
11141;SDS011;5625;50.122;19.864;2023-07-13T06:52:12;3.35;;;3.05;;
11141;SDS011;5625;50.122;19.864;2023-07-13T06:54:40;5.43;;;3.50;;
11141;SDS011;5625;50.122;19.864;2023-07-13T06:57:09;3.88;;;3.03;;
11141;SDS011;5625;50.122;19.864;2023-07-13T06:59:37;4.97;;;3.10;;
11141;SDS011;5625;50.122;19.864;2023-07-13T07:02:08;3.80;;;3.38;;
11141;SDS011;5625;50.122;19.864;2023-07-13T07:04:38;3.70;;;3.20;;
11141;SDS011;5625;50.122;19.864;2023-07-13T07:07:06;3.35;;;3.05;;
11141;SDS011;5625;50.122;19.864;2023-07-13T07:09:34;3.92;;;3.30;;
11141;SDS011;5625;50.122;19.864;2023-07-13T07:12:02;3.40;;;3.10;;
11141;SDS011;5625;50.122;19.864;2023-07-13T07:14:32;5.63;;;3.83;;
11141;SDS011;5625;50.122;19.864;2023-07-13T07:17:03;6.53;;;3.55;;
11141;SDS011;5625;50.122;19.864;2023-07-13T07:19:31;3.42;;;3.13;;
11141;SDS011;5625;50.122;19.864;2023-07-13T07:22:03;7.32;;;3.00;;
11141;SDS011;5625;50.122;19.864;2023-07-13T07:24:31;4.93;;;3.08;;
11141;SDS011;5625;50.122;19.864;2023-07-13T07:26:59;4.75;;;2.97;;
11141;SDS011;5625;50.122;19.864;2023-07-13T07:29:32;3.63;;;2.83;;
11141;SDS011;5625;50.122;19.864;2023-07-13T07:32:03;4.75;;;3.10;;
11141;SDS011;5625;50.122;19.864;2023-07-13T07:34:43;4.82;;;2.95;;
11141;SDS011;5625;50.122;19.864;2023-07-13T07:37:12;2.95;;;2.50;;
11141;SDS011;5625;50.122;19.864;2023-07-13T07:39:44;5.00;;;3.00;;
11141;SDS011;5625;50.122;19.864;2023-07-13T07:42:32;3.97;;;2.85;;
11141;SDS011;5625;50.122;19.864;2023-07-13T07:45:01;4.28;;;2.70;;
11141;SDS011;5625;50.122;19.864;2023-07-13T07:47:29;5.10;;;2.63;;
11141;SDS011;5625;50.122;19.864;2023-07-13T07:49:58;5.18;;;2.65;;
11141;SDS011;5625;50.122;19.864;2023-07-13T07:52:28;2.55;;;2.20;;
11141;SDS011;5625;50.122;19.864;2023-07-13T07:54:56;3.58;;;2.58;;
11141;SDS011;5625;50.122;19.864;2023-07-13T07:57:30;3.45;;;2.40;;
11141;SDS011;5625;50.122;19.864;2023-07-13T08:00:20;3.88;;;2.50;;
11141;SDS011;5625;50.122;19.864;2023-07-13T08:02:51;2.92;;;2.42;;
11141;SDS011;5625;50.122;19.864;2023-07-13T08:05:22;2.88;;;2.30;;
11141;SDS011;5625;50.122;19.864;2023-07-13T08:08:06;2.38;;;2.17;;
11141;SDS011;5625;50.122;19.864;2023-07-13T08:10:35;3.25;;;2.40;;
11141;SDS011;5625;50.122;19.864;2023-07-13T08:13:06;2.38;;;2.17;;
11141;SDS011;5625;50.122;19.864;2023-07-13T08:15:38;2.25;;;1.90;;
11141;SDS011;5625;50.122;19.864;2023-07-13T08:18:07;2.20;;;2.00;;
11141;SDS011;5625;50.122;19.864;2023-07-13T08:20:36;3.30;;;2.08;;
11141;SDS011;5625;50.122;19.864;2023-07-13T08:23:05;1.92;;;1.83;;
11141;SDS011;5625;50.122;19.864;2023-07-13T08:25:33;3.67;;;2.10;;
11141;SDS011;5625;50.122;19.864;2023-07-13T08:28:02;2.20;;;2.00;;
11141;SDS011;5625;50.122;19.864;2023-07-13T08:30:30;3.63;;;2.20;;
11141;SDS011;5625;50.122;19.864;2023-07-13T08:33:00;2.70;;;2.00;;
11141;SDS011;5625;50.122;19.864;2023-07-13T08:35:28;2.30;;;1.95;;
11141;SDS011;5625;50.122;19.864;2023-07-13T08:37:56;2.75;;;2.20;;
11141;SDS011;5625;50.122;19.864;2023-07-13T08:40:25;2.40;;;2.20;;
11141;SDS011;5625;50.122;19.864;2023-07-13T08:42:55;2.05;;;1.85;;
11141;SDS011;5625;50.122;19.864;2023-07-13T08:45:27;1.92;;;1.83;;
11141;SDS011;5625;50.122;19.864;2023-07-13T08:47:59;3.25;;;2.10;;
11141;SDS011;5625;50.122;19.864;2023-07-13T08:50:32;4.78;;;2.28;;
11141;SDS011;5625;50.122;19.864;2023-07-13T08:53:25;3.10;;;2.35;;
11141;SDS011;5625;50.122;19.864;2023-07-13T08:56:00;4.53;;;2.42;;
11141;SDS011;5625;50.122;19.864;2023-07-13T08:58:29;3.63;;;2.50;;
11141;SDS011;5625;50.122;19.864;2023-07-13T09:00:59;3.15;;;2.55;;
11141;SDS011;5625;50.122;19.864;2023-07-13T09:03:38;3.08;;;2.33;;
11141;SDS011;5625;50.122;19.864;2023-07-13T09:06:10;2.15;;;2.05;;
11141;SDS011;5625;50.122;19.864;2023-07-13T09:08:46;3.45;;;2.22;;
11141;SDS011;5625;50.122;19.864;2023-07-13T09:17:11;3.08;;;2.25;;
11141;SDS011;5625;50.122;19.864;2023-07-13T09:19:47;2.55;;;2.10;;
11141;SDS011;5625;50.122;19.864;2023-07-13T09:22:21;6.05;;;2.10;;
11141;SDS011;5625;50.122;19.864;2023-07-13T09:24:53;3.40;;;1.98;;
11141;SDS011;5625;50.122;19.864;2023-07-13T09:27:29;2.42;;;2.22;;
11141;SDS011;5625;50.122;19.864;2023-07-13T09:30:04;2.40;;;2.20;;
11141;SDS011;5625;50.122;19.864;2023-07-13T09:32:50;3.83;;;2.30;;
11141;SDS011;5625;50.122;19.864;2023-07-13T09:35:23;2.60;;;2.40;;
11141;SDS011;5625;50.122;19.864;2023-07-13T09:37:57;2.50;;;2.28;;
11141;SDS011;5625;50.122;19.864;2023-07-13T09:40:29;3.13;;;2.17;;
11141;SDS011;5625;50.122;19.864;2023-07-13T09:43:04;2.47;;;2.15;;
11141;SDS011;5625;50.122;19.864;2023-07-13T09:45:34;4.47;;;2.05;;
11141;SDS011;5625;50.122;19.864;2023-07-13T09:48:06;3.33;;;2.30;;
11141;SDS011;5625;50.122;19.864;2023-07-13T09:50:41;4.97;;;2.33;;
11141;SDS011;5625;50.122;19.864;2023-07-13T09:53:13;2.65;;;2.30;;
11141;SDS011;5625;50.122;19.864;2023-07-13T09:55:43;3.40;;;2.38;;
11141;SDS011;5625;50.122;19.864;2023-07-13T09:58:17;4.53;;;2.28;;
11141;SDS011;5625;50.122;19.864;2023-07-13T10:00:55;3.25;;;2.53;;
11141;SDS011;5625;50.122;19.864;2023-07-13T10:03:25;4.15;;;2.63;;
11141;SDS011;5625;50.122;19.864;2023-07-13T10:05:58;4.47;;;2.42;;
11141;SDS011;5625;50.122;19.864;2023-07-13T10:08:38;4.00;;;2.42;;
11141;SDS011;5625;50.122;19.864;2023-07-13T10:11:09;3.35;;;2.38;;
11141;SDS011;5625;50.122;19.864;2023-07-13T10:13:40;2.38;;;2.00;;
11141;SDS011;5625;50.122;19.864;2023-07-13T10:16:11;4.28;;;2.70;;
11141;SDS011;5625;50.122;19.864;2023-07-13T10:18:40;2.97;;;2.65;;
11141;SDS011;5625;50.122;19.864;2023-07-13T10:21:14;2.40;;;2.20;;
11141;SDS011;5625;50.122;19.864;2023-07-13T10:23:48;5.65;;;2.60;;
11141;SDS011;5625;50.122;19.864;2023-07-13T10:26:22;2.75;;;2.42;;
11141;SDS011;5625;50.122;19.864;2023-07-13T10:28:54;3.83;;;2.55;;
11141;SDS011;5625;50.122;19.864;2023-07-13T10:31:24;2.88;;;2.67;;
11141;SDS011;5625;50.122;19.864;2023-07-13T10:33:52;2.40;;;2.30;;
11141;SDS011;5625;50.122;19.864;2023-07-13T10:36:27;3.35;;;2.70;;
11141;SDS011;5625;50.122;19.864;2023-07-13T10:39:00;2.75;;;2.50;;
11141;SDS011;5625;50.122;19.864;2023-07-13T10:41:33;3.78;;;2.55;;
11141;SDS011;5625;50.122;19.864;2023-07-13T10:44:09;3.08;;;2.80;;
11141;SDS011;5625;50.122;19.864;2023-07-13T10:46:46;2.78;;;2.58;;
11141;SDS011;5625;50.122;19.864;2023-07-13T10:49:14;2.97;;;2.78;;
11141;SDS011;5625;50.122;19.864;2023-07-13T10:51:45;4.15;;;3.10;;
11141;SDS011;5625;50.122;19.864;2023-07-13T10:54:15;3.65;;;3.33;;
11141;SDS011;5625;50.122;19.864;2023-07-13T10:56:47;3.80;;;3.20;;
11141;SDS011;5625;50.122;19.864;2023-07-13T10:59:17;5.28;;;3.55;;
11141;SDS011;5625;50.122;19.864;2023-07-13T11:01:54;5.65;;;3.80;;
11141;SDS011;5625;50.122;19.864;2023-07-13T11:04:25;4.10;;;3.20;;
11141;SDS011;5625;50.122;19.864;2023-07-13T11:06:58;4.43;;;3.60;;
11141;SDS011;5625;50.122;19.864;2023-07-13T11:09:37;5.32;;;3.90;;
11141;SDS011;5625;50.122;19.864;2023-07-13T11:12:08;4.45;;;3.58;;
11141;SDS011;5625;50.122;19.864;2023-07-13T11:15:07;5.65;;;3.80;;
11141;SDS011;5625;50.122;19.864;2023-07-13T11:17:49;8.30;;;3.80;;
11141;SDS011;5625;50.122;19.864;2023-07-13T11:20:22;6.10;;;5.00;;
11141;SDS011;5625;50.122;19.864;2023-07-13T11:23:17;8.10;;;5.75;;
11141;SDS011;5625;50.122;19.864;2023-07-13T11:25:47;7.47;;;6.00;;
11141;SDS011;5625;50.122;19.864;2023-07-13T11:28:17;12.63;;;4.45;;
11141;SDS011;5625;50.122;19.864;2023-07-13T11:31:02;5.03;;;2.60;;
11141;SDS011;5625;50.122;19.864;2023-07-13T11:33:48;2.78;;;1.92;;
11141;SDS011;5625;50.122;19.864;2023-07-13T11:36:31;2.25;;;1.58;;
11141;SDS011;5625;50.122;19.864;2023-07-13T11:39:15;3.78;;;1.58;;
11141;SDS011;5625;50.122;19.864;2023-07-13T11:41:49;1.90;;;1.58;;
11141;SDS011;5625;50.122;19.864;2023-07-13T11:44:20;3.70;;;1.60;;
11141;SDS011;5625;50.122;19.864;2023-07-13T11:46:50;3.17;;;1.70;;
11141;SDS011;5625;50.122;19.864;2023-07-13T11:49:22;3.53;;;1.70;;
11141;SDS011;5625;50.122;19.864;2023-07-13T11:51:51;2.80;;;1.60;;
11141;SDS011;5625;50.122;19.864;2023-07-13T11:54:26;2.43;;;1.87;;
11141;SDS011;5625;50.122;19.864;2023-07-13T11:56:57;2.40;;;1.80;;
11141;SDS011;5625;50.122;19.864;2023-07-13T11:59:29;4.33;;;1.70;;
11141;SDS011;5625;50.122;19.864;2023-07-13T12:01:59;1.67;;;1.57;;
11141;SDS011;5625;50.122;19.864;2023-07-13T12:04:29;2.67;;;1.70;;
11141;SDS011;5625;50.122;19.864;2023-07-13T12:07:03;1.97;;;1.30;;
11141;SDS011;5625;50.122;19.864;2023-07-13T12:09:36;2.97;;;1.30;;
11141;SDS011;5625;50.122;19.864;2023-07-13T12:12:09;3.33;;;1.70;;
11141;SDS011;5625;50.122;19.864;2023-07-13T12:14:39;1.93;;;0.90;;
11141;SDS011;5625;50.122;19.864;2023-07-13T12:17:12;4.00;;;1.20;;
11141;SDS011;5625;50.122;19.864;2023-07-13T12:19:43;2.77;;;1.20;;
11141;SDS011;5625;50.122;19.864;2023-07-13T12:22:11;2.20;;;1.00;;
11141;SDS011;5625;50.122;19.864;2023-07-13T12:24:43;0.87;;;0.83;;
11141;SDS011;5625;50.122;19.864;2023-07-13T12:27:18;0.87;;;0.77;;
11141;SDS011;5625;50.122;19.864;2023-07-13T12:29:49;1.63;;;0.80;;
11141;SDS011;5625;50.122;19.864;2023-07-13T12:32:19;1.53;;;0.80;;
11141;SDS011;5625;50.122;19.864;2023-07-13T12:34:52;0.97;;;0.70;;
11141;SDS011;5625;50.122;19.864;2023-07-13T12:37:22;0.87;;;0.80;;
11141;SDS011;5625;50.122;19.864;2023-07-13T12:39:51;1.20;;;0.60;;
11141;SDS011;5625;50.122;19.864;2023-07-13T12:42:21;2.40;;;0.60;;
11141;SDS011;5625;50.122;19.864;2023-07-13T12:44:51;0.87;;;0.73;;
11141;SDS011;5625;50.122;19.864;2023-07-13T12:47:21;0.80;;;0.80;;
11141;SDS011;5625;50.122;19.864;2023-07-13T12:49:50;0.87;;;0.80;;
11141;SDS011;5625;50.122;19.864;2023-07-13T12:52:22;1.13;;;0.93;;
11141;SDS011;5625;50.122;19.864;2023-07-13T12:54:59;1.73;;;1.07;;
11141;SDS011;5625;50.122;19.864;2023-07-13T12:57:37;1.37;;;0.70;;
11141;SDS011;5625;50.122;19.864;2023-07-13T13:00:13;2.23;;;1.00;;
11141;SDS011;5625;50.122;19.864;2023-07-13T13:02:51;1.47;;;0.70;;
11141;SDS011;5625;50.122;19.864;2023-07-13T13:05:33;1.33;;;0.90;;
11141;SDS011;5625;50.122;19.864;2023-07-13T13:08:07;1.63;;;0.80;;
11141;SDS011;5625;50.122;19.864;2023-07-13T13:10:39;2.10;;;0.80;;
11141;SDS011;5625;50.122;19.864;2023-07-13T13:13:07;1.37;;;0.83;;
11141;SDS011;5625;50.122;19.864;2023-07-13T13:15:38;2.97;;;1.07;;
11141;SDS011;5625;50.122;19.864;2023-07-13T13:18:10;1.37;;;1.10;;
11141;SDS011;5625;50.122;19.864;2023-07-13T13:20:46;2.13;;;1.10;;
11141;SDS011;5625;50.122;19.864;2023-07-13T13:23:15;1.30;;;1.10;;
11141;SDS011;5625;50.122;19.864;2023-07-13T13:25:48;2.33;;;1.17;;
11141;SDS011;5625;50.122;19.864;2023-07-13T13:28:17;1.63;;;1.00;;
11141;SDS011;5625;50.122;19.864;2023-07-13T13:30:48;1.20;;;1.03;;
11141;SDS011;5625;50.122;19.864;2023-07-13T13:33:17;2.07;;;1.37;;
11141;SDS011;5625;50.122;19.864;2023-07-13T13:35:47;4.00;;;1.60;;
11141;SDS011;5625;50.122;19.864;2023-07-13T13:38:19;1.60;;;1.50;;
11141;SDS011;5625;50.122;19.864;2023-07-13T13:40:52;1.87;;;1.40;;
11141;SDS011;5625;50.122;19.864;2023-07-13T13:43:21;1.87;;;1.47;;
11141;SDS011;5625;50.122;19.864;2023-07-13T13:45:53;4.40;;;1.50;;
11141;SDS011;5625;50.122;19.864;2023-07-13T13:48:26;3.60;;;1.70;;
11141;SDS011;5625;50.122;19.864;2023-07-13T13:50:59;1.77;;;1.50;;
11141;SDS011;5625;50.122;19.864;2023-07-13T13:53:28;3.07;;;1.53;;
11141;SDS011;5625;50.122;19.864;2023-07-13T13:55:58;2.17;;;1.60;;
11141;SDS011;5625;50.122;19.864;2023-07-13T13:58:26;2.67;;;2.00;;
11141;SDS011;5625;50.122;19.864;2023-07-13T14:00:54;2.33;;;2.10;;
11141;SDS011;5625;50.122;19.864;2023-07-13T14:03:24;3.03;;;2.17;;
11141;SDS011;5625;50.122;19.864;2023-07-13T14:05:54;4.63;;;2.37;;
11141;SDS011;5625;50.122;19.864;2023-07-13T14:08:24;3.33;;;2.30;;
11141;SDS011;5625;50.122;19.864;2023-07-13T14:10:53;3.00;;;2.07;;
11141;SDS011;5625;50.122;19.864;2023-07-13T14:13:28;3.47;;;2.60;;
11141;SDS011;5625;50.122;19.864;2023-07-13T14:16:02;3.03;;;2.73;;
11141;SDS011;5625;50.122;19.864;2023-07-13T14:18:34;3.67;;;2.40;;
11141;SDS011;5625;50.122;19.864;2023-07-13T14:21:02;3.63;;;2.40;;
11141;SDS011;5625;50.122;19.864;2023-07-13T14:23:30;3.27;;;2.20;;
11141;SDS011;5625;50.122;19.864;2023-07-13T14:25:58;2.53;;;2.33;;
11141;SDS011;5625;50.122;19.864;2023-07-13T14:28:27;3.17;;;2.20;;
11141;SDS011;5625;50.122;19.864;2023-07-13T14:30:56;2.53;;;1.80;;
11141;SDS011;5625;50.122;19.864;2023-07-13T14:33:26;2.43;;;1.97;;
11141;SDS011;5625;50.122;19.864;2023-07-13T14:35:55;3.90;;;1.90;;
11141;SDS011;5625;50.122;19.864;2023-07-13T14:38:24;2.07;;;1.90;;
11141;SDS011;5625;50.122;19.864;2023-07-13T14:40:52;2.03;;;1.63;;
11141;SDS011;5625;50.122;19.864;2023-07-13T14:43:20;3.20;;;1.63;;
11141;SDS011;5625;50.122;19.864;2023-07-13T14:45:51;2.37;;;1.90;;
11141;SDS011;5625;50.122;19.864;2023-07-13T14:48:24;2.80;;;1.63;;
11141;SDS011;5625;50.122;19.864;2023-07-13T14:50:53;4.10;;;1.60;;
11141;SDS011;5625;50.122;19.864;2023-07-13T14:53:26;2.47;;;1.27;;
11141;SDS011;5625;50.122;19.864;2023-07-13T14:55:55;2.77;;;1.63;;
11141;SDS011;5625;50.122;19.864;2023-07-13T14:58:23;2.80;;;1.50;;
11141;SDS011;5625;50.122;19.864;2023-07-13T15:00:53;2.57;;;1.20;;
11141;SDS011;5625;50.122;19.864;2023-07-13T15:03:26;4.00;;;1.80;;
11141;SDS011;5625;50.122;19.864;2023-07-13T15:05:55;3.70;;;1.63;;
11141;SDS011;5625;50.122;19.864;2023-07-13T15:08:23;1.83;;;1.73;;
11141;SDS011;5625;50.122;19.864;2023-07-13T15:10:51;2.40;;;1.67;;
11141;SDS011;5625;50.122;19.864;2023-07-13T15:13:20;2.80;;;2.10;;
11141;SDS011;5625;50.122;19.864;2023-07-13T15:15:50;3.43;;;2.47;;
11141;SDS011;5625;50.122;19.864;2023-07-13T15:18:23;4.13;;;2.03;;